Time;durP1;ratioP1;P1;durP2;ratioP2;P2;SDS_P1;SDS_P2;PMS_P1;PMS_P2;Temp;Humidity;BMP_temperature;BMP_pressure;BME280_temperature;BME280_humidity;BME280_pressure;Samples;Min_cycle;Max_cycle;Signal;HPM_P1;HPM_P2
2022/10/16 00:00:16;;;;;;;;;;;22.80;53.10;;;;;;492194;241;1154;-60
2022/10/16 00:02:18;;;;;;;;;;;22.60;53.50;;;;;;492192;241;1154;-60
2022/10/16 00:04:19;;;;;;;;;;;22.50;53.70;;;;;;492204;241;2227;-60
2022/10/16 00:06:20;;;;;;;;;;;22.50;53.80;;;;;;492437;240;1249;-60
2022/10/16 00:08:22;;;;;;;;;;;22.50;53.80;;;;;;492235;241;1304;-61
2022/10/16 00:10:23;;;;;;;;;;;22.60;53.50;;;;;;492326;240;1191;-61
2022/10/16 00:12:24;;;;;;;;;;;22.70;53.30;;;;;;492163;241;1199;-60
2022/10/16 00:14:26;;;;;;;;;;;22.60;53.40;;;;;;492410;240;1236;-61
2022/10/16 00:16:27;;;;;;;;;;;22.60;53.40;;;;;;492180;241;1158;-60
2022/10/16 00:18:28;;;;;;;;;;;22.60;53.30;;;;;;492199;241;1257;-61
2022/10/16 00:20:31;;;;;;;;;;;22.70;53.30;;;;;;492220;240;1289;-60
2022/10/16 00:22:32;;;;;;;;;;;22.70;53.30;;;;;;492176;241;1208;-61
2022/10/16 00:24:33;;;;;;;;;;;22.70;53.20;;;;;;492339;240;2199;-60
2022/10/16 00:26:34;;;;;;;;;;;22.60;53.40;;;;;;492161;241;1288;-61
2022/10/16 00:28:36;;;;;;;;;;;22.70;53.20;;;;;;492258;240;1155;-62
2022/10/16 00:30:37;;;;;;;;;;;22.70;53.10;;;;;;492271;240;1256;-60
2022/10/16 00:32:38;;;;;;;;;;;22.80;53.10;;;;;;492217;240;1165;-61
2022/10/16 00:34:40;;;;;;;;;;;22.80;53.00;;;;;;492367;240;1235;-61
2022/10/16 00:36:41;;;;;;;;;;;22.80;52.90;;;;;;492246;240;1177;-60
2022/10/16 00:38:42;;;;;;;;;;;22.70;53.10;;;;;;492260;240;1202;-60
2022/10/16 00:40:44;;;;;;;;;;;22.70;53.20;;;;;;492177;240;1183;-60
2022/10/16 00:42:45;;;;;;;;;;;22.70;53.30;;;;;;492182;240;1181;-60
2022/10/16 00:44:46;;;;;;;;;;;22.70;53.10;;;;;;492172;241;2160;-60
2022/10/16 00:46:48;;;;;;;;;;;22.70;53.20;;;;;;492259;240;1175;-61
2022/10/16 00:48:49;;;;;;;;;;;22.70;53.20;;;;;;492158;241;1242;-60
2022/10/16 00:50:50;;;;;;;;;;;22.60;53.20;;;;;;492319;240;1195;-60
2022/10/16 00:52:52;;;;;;;;;;;22.60;53.40;;;;;;492190;241;1233;-60
2022/10/16 00:54:53;;;;;;;;;;;22.60;53.30;;;;;;492200;241;1212;-63
2022/10/16 00:56:54;;;;;;;;;;;22.50;53.40;;;;;;492156;241;1316;-60
2022/10/16 00:58:56;;;;;;;;;;;22.60;53.50;;;;;;492185;240;1209;-60
2022/10/16 01:00:57;;;;;;;;;;;22.60;53.30;;;;;;492282;240;1219;-60
2022/10/16 01:02:58;;;;;;;;;;;22.60;53.40;;;;;;492164;241;1201;-60
2022/10/16 01:05:00;;;;;;;;;;;22.60;53.10;;;;;;492304;240;2195;-61
2022/10/16 01:07:01;;;;;;;;;;;22.70;53.10;;;;;;492128;241;1201;-60
2022/10/16 01:09:02;;;;;;;;;;;22.60;53.10;;;;;;492303;240;1156;-60
2022/10/16 01:11:04;;;;;;;;;;;22.70;53.20;;;;;;492245;240;1154;-60
2022/10/16 01:13:05;;;;;;;;;;;22.70;53.20;;;;;;492178;241;1179;-60
2022/10/16 01:15:06;;;;;;;;;;;22.80;52.90;;;;;;492322;240;1123;-60
2022/10/16 01:17:07;;;;;;;;;;;22.70;53.10;;;;;;492230;241;1145;-60
2022/10/16 01:19:09;;;;;;;;;;;22.70;53.30;;;;;;492218;241;1212;-61
2022/10/16 01:21:10;;;;;;;;;;;22.70;53.30;;;;;;492166;241;1227;-60
2022/10/16 01:23:11;;;;;;;;;;;22.70;53.20;;;;;;492186;240;1252;-61
2022/10/16 01:25:13;;;;;;;;;;;22.70;53.10;;;;;;492497;240;2199;-61
2022/10/16 01:27:14;;;;;;;;;;;22.70;53.10;;;;;;492235;241;1202;-60
2022/10/16 01:29:16;;;;;;;;;;;22.70;53.10;;;;;;492241;240;1130;-61
2022/10/16 01:31:17;;;;;;;;;;;22.70;53.20;;;;;;492229;241;1147;-60
2022/10/16 01:33:18;;;;;;;;;;;22.70;53.00;;;;;;492580;240;1176;-62
2022/10/16 01:35:21;;;;;;;;;;;22.80;52.70;;;;;;492233;241;1210;-60
2022/10/16 01:37:21;;;;;;;;;;;22.80;52.80;;;;;;492180;241;1512;-61
2022/10/16 01:39:22;;;;;;;;;;;22.70;52.90;;;;;;492338;240;1184;-60
2022/10/16 01:41:24;;;;;;;;;;;22.70;53.00;;;;;;492229;241;1219;-60
2022/10/16 01:43:25;;;;;;;;;;;22.70;52.80;;;;;;492374;240;1284;-60
2022/10/16 01:45:27;;;;;;;;;;;22.60;53.10;;;;;;492287;240;2176;-61
2022/10/16 01:47:28;;;;;;;;;;;22.70;53.00;;;;;;492174;241;1216;-60
2022/10/16 01:49:30;;;;;;;;;;;22.80;52.80;;;;;;492389;240;1278;-60
2022/10/16 01:51:31;;;;;;;;;;;22.70;52.80;;;;;;492256;240;1158;-62
2022/10/16 01:53:32;;;;;;;;;;;22.60;53.00;;;;;;492176;240;1219;-61
2022/10/16 01:55:33;;;;;;;;;;;22.60;53.00;;;;;;492229;240;1230;-60
2022/10/16 01:57:35;;;;;;;;;;;22.60;53.30;;;;;;492104;241;1262;-61
2022/10/16 01:59:36;;;;;;;;;;;22.60;53.10;;;;;;492284;240;1143;-61
2022/10/16 02:01:37;;;;;;;;;;;22.50;53.30;;;;;;492283;240;1183;-61
2022/10/16 02:03:39;;;;;;;;;;;22.60;53.10;;;;;;492202;241;2157;-61
2022/10/16 02:05:40;;;;;;;;;;;22.60;53.10;;;;;;492181;241;1165;-60
2022/10/16 02:07:41;;;;;;;;;;;22.70;53.00;;;;;;492247;240;1277;-61
2022/10/16 02:09:43;;;;;;;;;;;22.70;52.90;;;;;;492287;240;1298;-61
2022/10/16 02:11:44;;;;;;;;;;;22.60;53.00;;;;;;492232;241;1126;-61
2022/10/16 02:13:45;;;;;;;;;;;22.60;53.20;;;;;;492289;240;1211;-60
2022/10/16 02:15:47;;;;;;;;;;;22.70;53.00;;;;;;492223;241;1285;-61
2022/10/16 02:17:48;;;;;;;;;;;22.60;53.10;;;;;;492359;240;1147;-61
2022/10/16 02:19:49;;;;;;;;;;;22.70;53.00;;;;;;492216;241;1281;-60
2022/10/16 02:21:51;;;;;;;;;;;22.80;52.80;;;;;;492149;241;1127;-60
2022/10/16 02:23:54;;;;;;;;;;;22.90;52.60;;;;;;492137;241;2196;-60
2022/10/16 02:25:53;;;;;;;;;;;22.80;52.60;;;;;;492178;240;1357;-60
2022/10/16 02:27:55;;;;;;;;;;;22.80;52.40;;;;;;492151;241;1223;-60
2022/10/16 02:29:58;;;;;;;;;;;22.90;52.40;;;;;;492458;240;1164;-60
2022/10/16 02:31:57;;;;;;;;;;;22.80;52.60;;;;;;492168;241;1468;-60
2022/10/16 02:33:59;;;;;;;;;;;22.80;52.60;;;;;;492286;240;1103;-61
2022/10/16 02:36:00;;;;;;;;;;;22.80;52.50;;;;;;492177;240;1182;-60
2022/10/16 02:38:01;;;;;;;;;;;22.60;52.90;;;;;;492274;240;1160;-60
2022/10/16 02:40:04;;;;;;;;;;;22.40;53.70;;;;;;492348;240;1173;-61
2022/10/16 02:42:04;;;;;;;;;;;22.40;53.30;;;;;;492195;241;1508;-60
2022/10/16 02:44:05;;;;;;;;;;;22.50;53.30;;;;;;492293;240;2188;-61
2022/10/16 02:46:07;;;;;;;;;;;22.60;53.00;;;;;;492224;240;1129;-61
2022/10/16 02:48:08;;;;;;;;;;;22.60;52.80;;;;;;492370;240;1192;-61
2022/10/16 02:50:09;;;;;;;;;;;22.60;52.90;;;;;;492236;240;1178;-61
2022/10/16 02:52:11;;;;;;;;;;;22.40;53.30;;;;;;492253;240;1260;-61
2022/10/16 02:54:12;;;;;;;;;;;22.40;53.30;;;;;;492389;240;1130;-60
2022/10/16 02:56:13;;;;;;;;;;;22.30;53.60;;;;;;492404;240;1232;-61
2022/10/16 02:58:15;;;;;;;;;;;22.30;54.00;;;;;;492300;240;1119;-61
2022/10/16 03:00:16;;;;;;;;;;;22.40;53.30;;;;;;492214;240;1239;-61
2022/10/16 03:02:17;;;;;;;;;;;22.60;53.00;;;;;;492268;240;1179;-60
2022/10/16 03:04:19;;;;;;;;;;;22.60;52.80;;;;;;492403;240;2172;-61
2022/10/16 03:06:20;;;;;;;;;;;22.60;53.00;;;;;;492223;240;1244;-62
2022/10/16 03:08:23;;;;;;;;;;;22.70;52.60;;;;;;492213;241;1237;-60
2022/10/16 03:10:23;;;;;;;;;;;22.70;52.70;;;;;;492314;240;1665;-60
2022/10/16 03:12:24;;;;;;;;;;;22.70;52.50;;;;;;491994;241;1332;-60
2022/10/16 03:14:25;;;;;;;;;;;22.60;52.70;;;;;;492420;240;1196;-61
2022/10/16 03:16:27;;;;;;;;;;;22.60;53.00;;;;;;492155;240;1319;-61
2022/10/16 03:18:28;;;;;;;;;;;22.50;53.00;;;;;;492212;240;1188;-60
2022/10/16 03:20:29;;;;;;;;;;;22.60;52.80;;;;;;492244;240;1237;-60
2022/10/16 03:22:31;;;;;;;;;;;22.40;53.00;;;;;;492048;240;1165;-61
2022/10/16 03:24:32;;;;;;;;;;;22.30;53.60;;;;;;492258;240;2164;-61
2022/10/16 03:26:33;;;;;;;;;;;22.40;53.40;;;;;;492044;240;1172;-60
2022/10/16 03:28:35;;;;;;;;;;;22.30;53.50;;;;;;492284;240;1177;-60
2022/10/16 03:30:36;;;;;;;;;;;22.30;53.60;;;;;;492175;241;1480;-60
2022/10/16 03:32:37;;;;;;;;;;;22.20;53.60;;;;;;492210;240;1281;-60
2022/10/16 03:34:38;;;;;;;;;;;22.30;53.40;;;;;;492279;240;1200;-60
2022/10/16 03:36:40;;;;;;;;;;;22.40;53.30;;;;;;492182;241;1318;-61
2022/10/16 03:38:41;;;;;;;;;;;22.40;53.30;;;;;;492244;240;1224;-60
2022/10/16 03:40:42;;;;;;;;;;;22.30;53.40;;;;;;492251;240;1167;-61
2022/10/16 03:42:44;;;;;;;;;;;22.30;53.40;;;;;;492224;240;1269;-61
2022/10/16 03:44:45;;;;;;;;;;;22.20;53.40;;;;;;492186;240;2187;-60
2022/10/16 03:46:47;;;;;;;;;;;22.30;53.30;;;;;;492183;241;1204;-60
2022/10/16 03:48:48;;;;;;;;;;;22.30;53.30;;;;;;492253;240;1191;-60
2022/10/16 03:50:51;;;;;;;;;;;22.40;53.20;;;;;;492255;240;1244;-61
2022/10/16 03:52:51;;;;;;;;;;;22.50;52.80;;;;;;492269;240;1968;-60
2022/10/16 03:54:52;;;;;;;;;;;22.70;52.40;;;;;;492199;241;1191;-60
2022/10/16 03:56:53;;;;;;;;;;;22.60;52.50;;;;;;492204;240;1190;-60
2022/10/16 03:58:55;;;;;;;;;;;22.70;52.40;;;;;;492279;240;1139;-60
2022/10/16 04:00:56;;;;;;;;;;;22.70;52.20;;;;;;492164;241;1156;-61
2022/10/16 04:02:57;;;;;;;;;;;22.70;52.10;;;;;;492293;240;1236;-60
2022/10/16 04:04:59;;;;;;;;;;;22.60;52.40;;;;;;492165;241;2188;-60
2022/10/16 04:07:00;;;;;;;;;;;22.60;52.40;;;;;;492126;241;1128;-61
2022/10/16 04:09:01;;;;;;;;;;;22.60;52.50;;;;;;492177;241;1176;-60
2022/10/16 04:11:03;;;;;;;;;;;22.70;52.30;;;;;;492194;241;1170;-60
2022/10/16 04:13:04;;;;;;;;;;;22.60;52.40;;;;;;492302;240;1169;-61
2022/10/16 04:15:05;;;;;;;;;;;22.60;52.30;;;;;;492177;240;1173;-60
2022/10/16 04:17:07;;;;;;;;;;;22.60;52.30;;;;;;492184;241;1215;-61
2022/10/16 04:19:08;;;;;;;;;;;22.60;52.50;;;;;;492514;240;1149;-61
2022/10/16 04:21:10;;;;;;;;;;;22.50;52.60;;;;;;492235;240;1201;-60
2022/10/16 04:23:11;;;;;;;;;;;22.60;52.40;;;;;;492189;241;1153;-60
2022/10/16 04:25:12;;;;;;;;;;;22.50;52.40;;;;;;492274;240;2236;-60
2022/10/16 04:27:14;;;;;;;;;;;22.60;52.20;;;;;;492210;240;1131;-61
2022/10/16 04:29:15;;;;;;;;;;;22.50;52.40;;;;;;492096;241;1151;-60
2022/10/16 04:31:16;;;;;;;;;;;22.50;52.50;;;;;;492147;240;1196;-60
2022/10/16 04:33:18;;;;;;;;;;;22.50;52.50;;;;;;492139;241;1128;-60
2022/10/16 04:35:19;;;;;;;;;;;22.40;52.70;;;;;;492176;241;1177;-61
2022/10/16 04:37:20;;;;;;;;;;;22.40;52.50;;;;;;491899;240;1344;-60
2022/10/16 04:39:22;;;;;;;;;;;22.40;52.60;;;;;;492263;240;1124;-60
2022/10/16 04:41:23;;;;;;;;;;;22.40;52.50;;;;;;492150;240;1580;-61
2022/10/16 04:43:24;;;;;;;;;;;22.20;53.20;;;;;;492241;240;1174;-61
2022/10/16 04:45:26;;;;;;;;;;;22.20;53.30;;;;;;492151;241;2149;-60
2022/10/16 04:47:27;;;;;;;;;;;22.10;53.50;;;;;;491929;241;1185;-60
2022/10/16 04:49:28;;;;;;;;;;;22.10;53.50;;;;;;492202;240;1117;-60
2022/10/16 04:51:29;;;;;;;;;;;22.10;53.50;;;;;;492253;240;1139;-60
2022/10/16 04:53:31;;;;;;;;;;;22.10;53.40;;;;;;492206;240;1200;-60
2022/10/16 04:55:32;;;;;;;;;;;22.20;53.00;;;;;;492143;240;1214;-60
2022/10/16 04:57:33;;;;;;;;;;;22.20;53.10;;;;;;492187;240;1245;-61
2022/10/16 04:59:35;;;;;;;;;;;22.20;53.20;;;;;;492216;240;1225;-61
2022/10/16 05:01:36;;;;;;;;;;;22.20;53.10;;;;;;492125;241;1220;-60
2022/10/16 05:03:37;;;;;;;;;;;22.20;52.90;;;;;;492244;240;1243;-60
2022/10/16 05:05:39;;;;;;;;;;;22.20;53.00;;;;;;492148;241;2156;-60
2022/10/16 05:07:40;;;;;;;;;;;22.20;52.90;;;;;;492261;240;1163;-61
2022/10/16 05:09:41;;;;;;;;;;;22.20;53.00;;;;;;492192;241;1127;-60
2022/10/16 05:11:43;;;;;;;;;;;22.20;52.90;;;;;;492174;241;1148;-60
2022/10/16 05:13:44;;;;;;;;;;;22.40;52.80;;;;;;492149;241;1228;-61
2022/10/16 05:15:45;;;;;;;;;;;22.30;52.70;;;;;;492204;240;1188;-61
2022/10/16 05:17:47;;;;;;;;;;;22.30;52.80;;;;;;492204;240;1186;-60
2022/10/16 05:19:48;;;;;;;;;;;22.40;52.60;;;;;;492185;241;1176;-60
2022/10/16 05:21:49;;;;;;;;;;;22.40;52.40;;;;;;492123;240;1156;-60
2022/10/16 05:23:51;;;;;;;;;;;22.60;52.00;;;;;;492126;240;1313;-60
2022/10/16 05:25:52;;;;;;;;;;;22.60;52.00;;;;;;492151;240;2188;-61
2022/10/16 05:27:53;;;;;;;;;;;22.70;51.80;;;;;;492117;241;1176;-60
2022/10/16 05:29:55;;;;;;;;;;;22.60;51.60;;;;;;492135;241;1189;-61
2022/10/16 05:31:56;;;;;;;;;;;22.60;51.80;;;;;;491908;241;1580;-60
2022/10/16 05:33:57;;;;;;;;;;;22.60;51.80;;;;;;492343;240;1177;-60
2022/10/16 05:35:59;;;;;;;;;;;22.70;51.70;;;;;;492000;240;1584;-60
2022/10/16 05:38:00;;;;;;;;;;;22.70;51.80;;;;;;492080;241;1212;-60
2022/10/16 05:40:02;;;;;;;;;;;22.60;51.80;;;;;;492139;241;1202;-60
2022/10/16 05:42:03;;;;;;;;;;;22.30;52.40;;;;;;491934;241;1564;-60
2022/10/16 05:44:04;;;;;;;;;;;22.30;52.60;;;;;;492278;240;1173;-60
2022/10/16 05:46:05;;;;;;;;;;;22.40;52.40;;;;;;491973;240;2183;-60
2022/10/16 05:48:07;;;;;;;;;;;22.40;52.10;;;;;;492118;241;1166;-61
2022/10/16 05:50:08;;;;;;;;;;;22.40;52.30;;;;;;492261;240;1171;-61
2022/10/16 05:52:09;;;;;;;;;;;22.40;52.20;;;;;;492116;240;1188;-60
2022/10/16 05:54:11;;;;;;;;;;;22.50;52.10;;;;;;492174;241;1203;-60
2022/10/16 05:56:12;;;;;;;;;;;22.80;51.40;;;;;;492288;240;1248;-60
2022/10/16 05:58:14;;;;;;;;;;;22.70;51.60;;;;;;492135;240;1219;-61
2022/10/16 06:00:15;;;;;;;;;;;22.60;51.50;;;;;;492297;240;1115;-60
2022/10/16 06:02:16;;;;;;;;;;;22.60;51.60;;;;;;492166;240;1182;-60
2022/10/16 06:04:18;;;;;;;;;;;22.60;51.80;;;;;;492187;241;1164;-60
2022/10/16 06:06:19;;;;;;;;;;;22.60;51.60;;;;;;492213;240;2188;-61
2022/10/16 06:08:21;;;;;;;;;;;22.60;51.80;;;;;;492245;240;1189;-60
2022/10/16 06:10:22;;;;;;;;;;;22.80;51.30;;;;;;492168;241;1368;-60
2022/10/16 06:12:23;;;;;;;;;;;22.80;51.20;;;;;;492286;240;1194;-60
2022/10/16 06:14:25;;;;;;;;;;;22.90;50.90;;;;;;492154;241;1285;-61
2022/10/16 06:16:26;;;;;;;;;;;22.90;51.00;;;;;;492248;240;1224;-61
2022/10/16 06:18:27;;;;;;;;;;;22.90;51.00;;;;;;492224;240;1198;-60
2022/10/16 06:20:29;;;;;;;;;;;22.80;51.10;;;;;;492168;240;1252;-60
2022/10/16 06:22:30;;;;;;;;;;;22.80;51.00;;;;;;492191;241;1307;-61
2022/10/16 06:24:31;;;;;;;;;;;22.70;51.30;;;;;;492307;240;1205;-60
2022/10/16 06:26:33;;;;;;;;;;;22.70;51.20;;;;;;492176;241;2152;-61
2022/10/16 06:28:34;;;;;;;;;;;22.70;51.20;;;;;;492186;240;1229;-61
2022/10/16 06:30:35;;;;;;;;;;;22.60;51.50;;;;;;492191;241;1197;-61
2022/10/16 06:32:37;;;;;;;;;;;22.70;51.20;;;;;;492232;240;1352;-61
2022/10/16 06:34:39;;;;;;;;;;;22.80;50.90;;;;;;492273;240;1143;-60
2022/10/16 06:36:39;;;;;;;;;;;22.80;50.80;;;;;;492145;241;1286;-61
2022/10/16 06:38:41;;;;;;;;;;;22.90;50.80;;;;;;492443;240;1196;-60
2022/10/16 06:40:42;;;;;;;;;;;23.00;50.70;;;;;;492167;241;1220;-61
2022/10/16 06:42:43;;;;;;;;;;;22.90;50.80;;;;;;492250;240;1327;-61
2022/10/16 06:44:45;;;;;;;;;;;22.70;51.10;;;;;;492402;240;1186;-60
2022/10/16 06:46:46;;;;;;;;;;;22.80;51.10;;;;;;492423;240;2179;-60
2022/10/16 06:48:47;;;;;;;;;;;22.80;51.30;;;;;;492284;240;1209;-60
2022/10/16 06:50:49;;;;;;;;;;;22.80;51.20;;;;;;492182;240;1613;-61
2022/10/16 06:52:50;;;;;;;;;;;22.80;51.00;;;;;;492194;240;1175;-61
2022/10/16 06:54:51;;;;;;;;;;;22.80;51.00;;;;;;492186;241;1205;-60
2022/10/16 06:56:54;;;;;;;;;;;22.70;51.10;;;;;;492211;240;1133;-60
2022/10/16 06:58:54;;;;;;;;;;;22.70;51.30;;;;;;492267;240;1412;-61
2022/10/16 07:00:55;;;;;;;;;;;22.70;51.20;;;;;;492172;241;1175;-61
2022/10/16 07:02:56;;;;;;;;;;;22.70;51.30;;;;;;492196;241;1157;-60
2022/10/16 07:04:58;;;;;;;;;;;22.70;51.30;;;;;;492247;240;1181;-60
2022/10/16 07:06:59;;;;;;;;;;;22.70;51.30;;;;;;492355;240;2194;-61
2022/10/16 07:09:01;;;;;;;;;;;22.70;51.40;;;;;;492196;241;1151;-60
2022/10/16 07:11:02;;;;;;;;;;;22.80;51.30;;;;;;492333;240;1322;-60
2022/10/16 07:13:03;;;;;;;;;;;22.80;51.00;;;;;;492276;240;1198;-60
2022/10/16 07:15:04;;;;;;;;;;;22.90;50.90;;;;;;492197;241;1174;-61
2022/10/16 07:17:06;;;;;;;;;;;22.90;50.80;;;;;;492197;241;1196;-61
2022/10/16 07:19:07;;;;;;;;;;;22.90;50.80;;;;;;492246;241;1186;-61
2022/10/16 07:21:08;;;;;;;;;;;23.00;50.60;;;;;;492218;241;1201;-60
2022/10/16 07:23:10;;;;;;;;;;;23.00;50.70;;;;;;492407;240;1150;-61
2022/10/16 07:25:11;;;;;;;;;;;23.00;50.70;;;;;;492223;241;1391;-60
2022/10/16 07:27:12;;;;;;;;;;;22.90;50.60;;;;;;492217;241;2207;-61
2022/10/16 07:29:14;;;;;;;;;;;23.00;50.80;;;;;;492309;240;1225;-60
2022/10/16 07:31:15;;;;;;;;;;;22.90;50.90;;;;;;492264;241;1063;-60
2022/10/16 07:33:16;;;;;;;;;;;22.90;51.20;;;;;;492262;240;1139;-61
2022/10/16 07:35:18;;;;;;;;;;;22.90;51.00;;;;;;492396;240;1082;-60
2022/10/16 07:37:19;;;;;;;;;;;22.80;51.20;;;;;;492153;240;1173;-61
2022/10/16 07:39:21;;;;;;;;;;;22.80;51.30;;;;;;492349;240;1353;-60
2022/10/16 07:41:22;;;;;;;;;;;22.70;51.50;;;;;;492280;240;1184;-61
2022/10/16 07:43:23;;;;;;;;;;;22.70;51.50;;;;;;492151;241;1182;-60
2022/10/16 07:45:24;;;;;;;;;;;22.70;51.60;;;;;;492334;240;1166;-61
2022/10/16 07:47:26;;;;;;;;;;;22.70;51.70;;;;;;492149;241;2188;-61
2022/10/16 07:49:27;;;;;;;;;;;22.40;52.40;;;;;;492356;240;1187;-61
2022/10/16 07:51:28;;;;;;;;;;;22.40;52.70;;;;;;492357;240;1147;-60
2022/10/16 07:53:30;;;;;;;;;;;22.50;52.30;;;;;;492150;241;1246;-60
2022/10/16 07:55:31;;;;;;;;;;;22.60;52.00;;;;;;492200;240;1177;-61
2022/10/16 07:57:33;;;;;;;;;;;22.60;52.20;;;;;;492179;241;1150;-61
2022/10/16 07:59:34;;;;;;;;;;;22.70;51.80;;;;;;492106;240;1316;-61
2022/10/16 08:01:35;;;;;;;;;;;22.70;52.00;;;;;;492169;240;1248;-61
2022/10/16 08:03:36;;;;;;;;;;;22.80;51.90;;;;;;492244;241;1083;-60
2022/10/16 08:05:38;;;;;;;;;;;22.70;51.90;;;;;;492224;240;1183;-61
2022/10/16 08:07:39;;;;;;;;;;;22.80;51.80;;;;;;492229;241;2128;-60
2022/10/16 08:09:40;;;;;;;;;;;22.90;51.60;;;;;;492309;240;1193;-61
2022/10/16 08:11:42;;;;;;;;;;;22.80;51.90;;;;;;492221;240;1151;-60
2022/10/16 08:13:43;;;;;;;;;;;22.90;51.50;;;;;;492205;241;1162;-61
2022/10/16 08:15:44;;;;;;;;;;;22.90;51.60;;;;;;492232;240;1192;-61
2022/10/16 08:17:46;;;;;;;;;;;22.80;52.10;;;;;;492183;240;1245;-60
2022/10/16 08:19:47;;;;;;;;;;;22.90;52.00;;;;;;492220;240;1186;-61
2022/10/16 08:21:49;;;;;;;;;;;22.80;52.10;;;;;;492235;240;1222;-60
2022/10/16 08:23:50;;;;;;;;;;;22.90;52.10;;;;;;492147;241;1152;-60
2022/10/16 08:25:51;;;;;;;;;;;23.00;52.00;;;;;;492235;240;1166;-61
2022/10/16 08:27:53;;;;;;;;;;;22.90;52.00;;;;;;492111;241;2195;-61
2022/10/16 08:29:54;;;;;;;;;;;23.00;52.00;;;;;;492183;240;1196;-61
2022/10/16 08:31:55;;;;;;;;;;;23.00;52.00;;;;;;492298;240;1232;-61
2022/10/16 08:33:56;;;;;;;;;;;22.80;52.30;;;;;;492298;240;1261;-60
2022/10/16 08:35:58;;;;;;;;;;;22.90;52.40;;;;;;492282;240;1178;-61
2022/10/16 08:37:59;;;;;;;;;;;22.80;52.40;;;;;;492202;240;1149;-61
2022/10/16 08:40:00;;;;;;;;;;;22.80;52.30;;;;;;492230;240;1182;-60
2022/10/16 08:42:02;;;;;;;;;;;22.80;52.50;;;;;;492330;240;1196;-61
2022/10/16 08:44:03;;;;;;;;;;;22.80;52.60;;;;;;492235;240;1140;-60
2022/10/16 08:46:05;;;;;;;;;;;22.70;52.70;;;;;;492159;241;2184;-60
2022/10/16 08:48:06;;;;;;;;;;;22.70;52.90;;;;;;492324;240;1218;-60
2022/10/16 08:50:07;;;;;;;;;;;22.70;53.10;;;;;;492213;241;1198;-61
2022/10/16 08:52:09;;;;;;;;;;;22.70;52.90;;;;;;492171;241;1232;-60
2022/10/16 08:54:10;;;;;;;;;;;22.50;53.70;;;;;;492240;241;1175;-61
2022/10/16 08:56:11;;;;;;;;;;;22.60;53.30;;;;;;492309;240;1236;-60
2022/10/16 08:58:13;;;;;;;;;;;22.60;53.40;;;;;;492219;240;1148;-60
2022/10/16 09:00:15;;;;;;;;;;;22.50;53.50;;;;;;492254;240;1153;-61
2022/10/16 09:02:16;;;;;;;;;;;22.50;53.50;;;;;;492155;241;1161;-61
2022/10/16 09:04:17;;;;;;;;;;;22.60;53.40;;;;;;492203;240;1202;-61
2022/10/16 09:06:19;;;;;;;;;;;22.70;53.20;;;;;;492145;241;2252;-62
2022/10/16 09:08:20;;;;;;;;;;;22.80;52.90;;;;;;492152;240;1206;-60
2022/10/16 09:10:21;;;;;;;;;;;22.70;53.30;;;;;;492172;241;1204;-60
2022/10/16 09:12:23;;;;;;;;;;;22.80;53.10;;;;;;492140;241;1239;-60
2022/10/16 09:14:25;;;;;;;;;;;22.80;53.00;;;;;;492278;240;1243;-61
2022/10/16 09:16:26;;;;;;;;;;;22.70;53.20;;;;;;492199;240;1324;-61
2022/10/16 09:18:27;;;;;;;;;;;22.80;53.20;;;;;;492253;240;1153;-60
2022/10/16 09:20:28;;;;;;;;;;;22.80;53.30;;;;;;492175;240;1190;-60
2022/10/16 09:22:30;;;;;;;;;;;22.80;53.40;;;;;;492226;240;1341;-61
2022/10/16 09:24:31;;;;;;;;;;;22.70;53.30;;;;;;492185;241;1135;-61
2022/10/16 09:26:32;;;;;;;;;;;22.80;53.40;;;;;;492222;240;2160;-61
2022/10/16 09:28:34;;;;;;;;;;;22.70;53.40;;;;;;492179;241;1144;-61
2022/10/16 09:30:35;;;;;;;;;;;22.70;53.50;;;;;;492188;240;1128;-60
2022/10/16 09:32:36;;;;;;;;;;;22.70;53.60;;;;;;492164;241;1185;-60
2022/10/16 09:34:38;;;;;;;;;;;22.60;53.90;;;;;;492164;240;1188;-60
2022/10/16 09:36:39;;;;;;;;;;;22.70;53.70;;;;;;492117;241;1254;-62
2022/10/16 09:38:40;;;;;;;;;;;22.60;54.10;;;;;;492493;240;1297;-60
2022/10/16 09:40:42;;;;;;;;;;;22.50;54.40;;;;;;492163;240;1226;-61
2022/10/16 09:42:43;;;;;;;;;;;22.50;54.30;;;;;;492185;241;1156;-61
2022/10/16 09:44:44;;;;;;;;;;;22.70;54.00;;;;;;492338;240;1185;-61
2022/10/16 09:46:46;;;;;;;;;;;22.70;53.80;;;;;;492171;241;2195;-61
2022/10/16 09:48:47;;;;;;;;;;;22.70;53.90;;;;;;492187;241;1399;-62
2022/10/16 09:50:48;;;;;;;;;;;22.80;53.70;;;;;;492124;240;1189;-61
2022/10/16 09:52:50;;;;;;;;;;;22.80;53.90;;;;;;492262;240;1194;-61
2022/10/16 09:54:51;;;;;;;;;;;22.80;54.00;;;;;;492191;241;1291;-60
2022/10/16 09:56:53;;;;;;;;;;;22.70;54.30;;;;;;492210;240;1204;-60
2022/10/16 09:58:54;;;;;;;;;;;22.70;54.10;;;;;;492199;240;1431;-61
2022/10/16 10:00:55;;;;;;;;;;;22.70;54.60;;;;;;492181;241;1176;-62
2022/10/16 10:02:56;;;;;;;;;;;22.70;54.40;;;;;;492352;240;1177;-60
2022/10/16 10:04:58;;;;;;;;;;;22.80;54.00;;;;;;492205;241;1175;-61
2022/10/16 10:06:59;;;;;;;;;;;22.90;53.90;;;;;;492169;240;2156;-61
2022/10/16 10:09:00;;;;;;;;;;;22.80;53.90;;;;;;492349;240;1176;-61
2022/10/16 10:11:02;;;;;;;;;;;22.80;54.00;;;;;;492180;240;1154;-61
2022/10/16 10:13:03;;;;;;;;;;;22.90;54.00;;;;;;492342;240;1234;-60
2022/10/16 10:15:04;;;;;;;;;;;22.90;54.10;;;;;;492224;241;1163;-60
2022/10/16 10:17:06;;;;;;;;;;;22.90;53.90;;;;;;492186;240;1185;-60
2022/10/16 10:19:07;;;;;;;;;;;22.80;54.10;;;;;;492221;241;1147;-61
2022/10/16 10:21:08;;;;;;;;;;;22.80;54.10;;;;;;492149;241;1155;-60
2022/10/16 10:23:10;;;;;;;;;;;22.70;54.30;;;;;;492153;241;1136;-61
2022/10/16 10:25:11;;;;;;;;;;;22.70;54.30;;;;;;492166;241;1140;-60
2022/10/16 10:27:12;;;;;;;;;;;22.80;54.30;;;;;;492382;240;2196;-60
2022/10/16 10:29:14;;;;;;;;;;;22.70;54.40;;;;;;492178;240;1209;-60
2022/10/16 10:31:15;;;;;;;;;;;22.80;54.30;;;;;;492006;241;1200;-60
2022/10/16 10:33:16;;;;;;;;;;;22.70;54.60;;;;;;492339;240;1199;-61
2022/10/16 10:35:18;;;;;;;;;;;22.70;54.50;;;;;;492260;240;1103;-60
2022/10/16 10:37:19;;;;;;;;;;;22.70;54.40;;;;;;491994;241;1146;-61
2022/10/16 10:39:20;;;;;;;;;;;22.80;54.30;;;;;;492209;241;1113;-60
2022/10/16 10:41:22;;;;;;;;;;;22.80;54.10;;;;;;492032;240;1241;-61
2022/10/16 10:43:23;;;;;;;;;;;22.80;54.20;;;;;;492193;241;1244;-61
2022/10/16 10:45:24;;;;;;;;;;;22.70;54.30;;;;;;492546;240;1191;-61
2022/10/16 10:47:25;;;;;;;;;;;22.80;54.20;;;;;;492000;241;2168;-60
2022/10/16 10:49:27;;;;;;;;;;;22.70;54.10;;;;;;492303;240;1120;-60
2022/10/16 10:51:28;;;;;;;;;;;22.70;54.30;;;;;;492254;240;1274;-62
2022/10/16 10:53:29;;;;;;;;;;;22.50;54.70;;;;;;492322;240;1203;-60
2022/10/16 10:55:31;;;;;;;;;;;22.70;54.20;;;;;;492245;240;1140;-60
2022/10/16 10:57:32;;;;;;;;;;;22.60;54.40;;;;;;492244;240;1169;-61
2022/10/16 10:59:33;;;;;;;;;;;22.70;54.10;;;;;;492159;241;1279;-60
2022/10/16 11:01:35;;;;;;;;;;;22.60;54.20;;;;;;492329;240;1148;-61
2022/10/16 11:03:36;;;;;;;;;;;22.60;54.50;;;;;;492174;240;1235;-60
2022/10/16 11:05:37;;;;;;;;;;;22.70;54.00;;;;;;492224;240;1210;-61
2022/10/16 11:07:39;;;;;;;;;;;22.70;54.00;;;;;;492161;240;2191;-61
2022/10/16 11:09:40;;;;;;;;;;;22.80;53.90;;;;;;492222;240;1223;-60
2022/10/16 11:11:41;;;;;;;;;;;22.80;53.60;;;;;;492214;240;1157;-61
2022/10/16 11:13:43;;;;;;;;;;;22.90;53.30;;;;;;492150;241;1205;-61
2022/10/16 11:15:44;;;;;;;;;;;22.90;53.40;;;;;;492133;240;1175;-61
2022/10/16 11:17:45;;;;;;;;;;;22.80;53.50;;;;;;492146;241;1232;-60
2022/10/16 11:19:47;;;;;;;;;;;22.80;53.50;;;;;;492192;241;1161;-60
2022/10/16 11:21:50;;;;;;;;;;;22.80;53.50;;;;;;492251;240;1145;-60
2022/10/16 11:23:50;;;;;;;;;;;22.90;53.50;;;;;;492195;241;1530;-60
2022/10/16 11:25:51;;;;;;;;;;;22.90;53.30;;;;;;492365;240;1183;-61
2022/10/16 11:27:52;;;;;;;;;;;22.80;53.40;;;;;;492148;241;2191;-60
2022/10/16 11:29:54;;;;;;;;;;;22.90;53.20;;;;;;492205;240;1193;-61
2022/10/16 11:31:55;;;;;;;;;;;22.80;53.30;;;;;;492203;240;1226;-60
2022/10/16 11:33:56;;;;;;;;;;;22.90;53.30;;;;;;492198;241;1340;-60
2022/10/16 11:35:58;;;;;;;;;;;22.90;53.10;;;;;;492256;240;1208;-60
2022/10/16 11:37:59;;;;;;;;;;;22.80;52.90;;;;;;492245;240;1354;-60
2022/10/16 11:40:00;;;;;;;;;;;22.90;52.90;;;;;;492161;241;1246;-60
2022/10/16 11:42:02;;;;;;;;;;;22.80;52.80;;;;;;492189;240;1489;-61
2022/10/16 11:44:03;;;;;;;;;;;22.90;52.70;;;;;;492214;240;1151;-60
2022/10/16 11:46:04;;;;;;;;;;;22.90;52.60;;;;;;492175;241;1134;-61
2022/10/16 11:48:06;;;;;;;;;;;22.90;52.70;;;;;;492308;240;2187;-60
2022/10/16 11:50:07;;;;;;;;;;;22.90;52.70;;;;;;492245;240;1162;-61
2022/10/16 11:52:08;;;;;;;;;;;22.90;52.70;;;;;;492123;241;1257;-60
2022/10/16 11:54:10;;;;;;;;;;;22.90;52.50;;;;;;492264;240;1156;-60
2022/10/16 11:56:11;;;;;;;;;;;22.90;52.50;;;;;;492347;240;1182;-61